Time;durP1;ratioP1;P1;durP2;ratioP2;P2;SDS_P1;SDS_P2;PMS_P1;PMS_P2;Temp;Humidity;BMP_temperature;BMP_pressure;BME280_temperature;BME280_humidity;BME280_pressure;Samples;Min_cycle;Max_cycle;Signal;HPM_P1;HPM_P2
2021/03/24 00:00:24;;;;;;;39.03;23.93;;;;;;;;;;1052605;28;20016;-52
2021/03/24 00:00:55;;;;;;;47.58;24.40;;;;;;;;;;1052471;28;20101;-51
2021/03/24 00:01:25;;;;;;;45.77;26.50;;;;;;;;;;1052589;28;20069;-48
2021/03/24 00:01:56;;;;;;;61.53;34.43;;;;;;;;;;1052786;28;20159;-48
2021/03/24 00:02:26;;;;;;;65.50;37.77;;;;;;;;;;1053031;28;20422;-50
2021/03/24 00:02:56;;;;;;;66.70;38.80;;;;;;;;;;1049941;28;20123;-49
2021/03/24 00:03:27;;;;;;;61.20;36.57;;;;;;;;;;1052495;28;20015;-51
2021/03/24 00:03:57;;;;;;;57.83;34.30;;;;;;;;;;1052260;28;20069;-49
2021/03/24 00:04:27;;;;;;;56.57;33.13;;;;;;;;;;1052715;28;20050;-49
2021/03/24 00:04:58;;;;;;;55.83;32.70;;;;;;;;;;1052784;28;20016;-49
2021/03/24 00:05:29;;;;;;;54.07;31.37;;;;;;;;;;1052749;28;20008;-50
2021/03/24 00:06:00;;;;;;;55.30;30.75;;;;;;;;;;1052681;28;20035;-49
2021/03/24 00:06:30;;;;;;;53.87;32.17;;;;;;;;;;1052851;28;20107;-50
2021/03/24 00:07:00;;;;;;;51.17;28.33;;;;;;;;;;1052674;28;20081;-49
2021/03/24 00:07:31;;;;;;;47.53;26.33;;;;;;;;;;1052808;28;20014;-50
2021/03/24 00:08:01;;;;;;;43.63;25.03;;;;;;;;;;1052928;28;20020;-47
2021/03/24 00:08:31;;;;;;;37.40;23.40;;;;;;;;;;1052372;28;20070;-48
2021/03/24 00:09:03;;;;;;;39.17;23.47;;;;;;;;;;1052508;28;20016;-48
2021/03/24 00:09:34;;;;;;;35.92;22.73;;;;;;;;;;1052634;28;20028;-48
2021/03/24 00:10:04;;;;;;;35.57;22.33;;;;;;;;;;1052761;28;20024;-47
2021/03/24 00:10:35;;;;;;;36.63;23.00;;;;;;;;;;1052392;28;20027;-51
2021/03/24 00:11:06;;;;;;;33.20;20.77;;;;;;;;;;1044280;28;20024;-49
2021/03/24 00:11:36;;;;;;;30.53;20.70;;;;;;;;;;1040179;28;20013;-49
2021/03/24 00:12:07;;;;;;;29.87;19.57;;;;;;;;;;1040208;28;20025;-50
2021/03/24 00:12:37;;;;;;;30.27;20.03;;;;;;;;;;1044852;28;20017;-49
2021/03/24 00:13:08;;;;;;;31.00;19.33;;;;;;;;;;1052409;28;20455;-50
2021/03/24 00:13:38;;;;;;;30.73;19.27;;;;;;;;;;1052880;28;20357;-48
2021/03/24 00:14:08;;;;;;;32.27;19.40;;;;;;;;;;1052279;28;20003;-52
2021/03/24 00:14:38;;;;;;;32.27;19.43;;;;;;;;;;1047962;28;20503;-49
2021/03/24 00:15:10;;;;;;;29.50;19.00;;;;;;;;;;1048142;28;20005;-50
2021/03/24 00:15:40;;;;;;;35.33;19.70;;;;;;;;;;1048619;28;20012;-48
2021/03/24 00:16:10;;;;;;;30.53;19.03;;;;;;;;;;1048380;28;20032;-49
2021/03/24 00:16:41;;;;;;;32.77;20.60;;;;;;;;;;1052706;28;20075;-49
2021/03/24 00:17:11;;;;;;;31.30;19.07;;;;;;;;;;1052526;28;20004;-50
2021/03/24 00:17:41;;;;;;;28.90;18.77;;;;;;;;;;1052546;28;20098;-50
2021/03/24 00:18:12;;;;;;;29.03;19.00;;;;;;;;;;1052990;28;20365;-48
2021/03/24 00:18:42;;;;;;;28.27;18.80;;;;;;;;;;1052990;28;20432;-48
2021/03/24 00:19:13;;;;;;;27.90;18.83;;;;;;;;;;1052936;28;20415;-49
2021/03/24 00:19:46;;;;;;;35.05;19.75;;;;;;;;;;1052979;28;21588;-50
2021/03/24 00:20:18;;;;;;;30.70;20.00;;;;;;;;;;1052882;28;20008;-50
2021/03/24 00:20:48;;;;;;;31.73;19.05;;;;;;;;;;1052885;28;20001;-49
2021/03/24 00:21:18;;;;;;;30.17;18.20;;;;;;;;;;1053159;28;20016;-52
2021/03/24 00:21:49;;;;;;;29.97;18.97;;;;;;;;;;1052941;28;20464;-49
2021/03/24 00:22:19;;;;;;;28.23;17.60;;;;;;;;;;1052946;28;19997;-51
2021/03/24 00:22:49;;;;;;;31.57;18.70;;;;;;;;;;1052702;28;20008;-50
2021/03/24 00:23:20;;;;;;;31.20;18.80;;;;;;;;;;1052590;28;20001;-49
2021/03/24 00:23:50;;;;;;;27.90;19.27;;;;;;;;;;1052118;28;20402;-47
2021/03/24 00:24:21;;;;;;;31.13;18.30;;;;;;;;;;1044251;28;20151;-50
2021/03/24 00:24:51;;;;;;;31.87;19.33;;;;;;;;;;1039560;28;20041;-50
2021/03/24 00:25:21;;;;;;;33.43;19.20;;;;;;;;;;1039885;28;20248;-50
2021/03/24 00:25:52;;;;;;;31.90;18.77;;;;;;;;;;1044234;28;20005;-48
2021/03/24 00:26:22;;;;;;;32.13;19.13;;;;;;;;;;1052564;28;20008;-50
2021/03/24 00:26:52;;;;;;;30.97;19.17;;;;;;;;;;1052251;28;20016;-50
2021/03/24 00:27:23;;;;;;;30.00;18.50;;;;;;;;;;1053021;28;20434;-50
2021/03/24 00:27:53;;;;;;;30.47;18.97;;;;;;;;;;1052917;28;20029;-53
2021/03/24 00:28:23;;;;;;;32.60;19.87;;;;;;;;;;1053408;28;20070;-47
2021/03/24 00:28:54;;;;;;;28.43;18.07;;;;;;;;;;1053198;28;20057;-50
2021/03/24 00:29:24;;;;;;;32.60;19.43;;;;;;;;;;1053039;28;20004;-48
2021/03/24 00:29:54;;;;;;;30.13;18.53;;;;;;;;;;1052361;28;20008;-49
2021/03/24 00:30:26;;;;;;;29.97;18.83;;;;;;;;;;1048999;28;20357;-48
2021/03/24 00:30:56;;;;;;;31.75;18.75;;;;;;;;;;1049256;28;20013;-51
2021/03/24 00:31:27;;;;;;;30.60;19.00;;;;;;;;;;1048378;28;20377;-51
2021/03/24 00:31:57;;;;;;;29.73;19.67;;;;;;;;;;1048991;28;20066;-48
2021/03/24 00:32:27;;;;;;;32.37;19.23;;;;;;;;;;1052892;28;20093;-49
2021/03/24 00:32:58;;;;;;;30.80;18.60;;;;;;;;;;1052730;28;20010;-51
2021/03/24 00:33:28;;;;;;;28.80;19.90;;;;;;;;;;1052885;28;20050;-48
2021/03/24 00:33:58;;;;;;;29.40;17.87;;;;;;;;;;1052919;28;20028;-47
2021/03/24 00:34:28;;;;;;;30.80;19.33;;;;;;;;;;1053072;28;20517;-50
2021/03/24 00:34:59;;;;;;;26.90;18.07;;;;;;;;;;1053171;28;20508;-49
2021/03/24 00:35:29;;;;;;;29.20;18.07;;;;;;;;;;1052870;28;20057;-52
2021/03/24 00:35:59;;;;;;;28.90;18.53;;;;;;;;;;1051631;28;20610;-51
2021/03/24 00:36:30;;;;;;;29.67;18.53;;;;;;;;;;1049026;28;20066;-49
2021/03/24 00:37:00;;;;;;;31.37;19.83;;;;;;;;;;1048968;28;20032;-49
2021/03/24 00:37:30;;;;;;;31.27;18.40;;;;;;;;;;1048749;28;20142;-49
2021/03/24 00:38:01;;;;;;;28.37;18.67;;;;;;;;;;1050114;28;20416;-50
2021/03/24 00:38:31;;;;;;;27.20;19.20;;;;;;;;;;1053490;28;20031;-49
2021/03/24 00:39:01;;;;;;;30.10;19.50;;;;;;;;;;1053316;28;20009;-49
2021/03/24 00:39:32;;;;;;;30.50;20.20;;;;;;;;;;1053051;28;20012;-48
2021/03/24 00:40:03;;;;;;;29.83;18.93;;;;;;;;;;1052056;28;20095;-49
2021/03/24 00:40:35;;;;;;;27.35;18.42;;;;;;;;;;1051992;28;20024;-49
2021/03/24 00:41:06;;;;;;;29.17;17.83;;;;;;;;;;1052903;28;20070;-49
2021/03/24 00:41:36;;;;;;;28.87;18.37;;;;;;;;;;1052950;28;20099;-48
2021/03/24 00:42:06;;;;;;;28.83;18.87;;;;;;;;;;1053277;28;20262;-48
2021/03/24 00:42:37;;;;;;;30.90;19.77;;;;;;;;;;1052991;28;20016;-49
2021/03/24 00:43:07;;;;;;;33.07;19.83;;;;;;;;;;1053368;28;20084;-50
2021/03/24 00:43:37;;;;;;;35.43;20.03;;;;;;;;;;1044689;28;20059;-47
2021/03/24 00:44:08;;;;;;;34.77;19.60;;;;;;;;;;1038529;28;20416;-47
2021/03/24 00:44:38;;;;;;;34.37;20.30;;;;;;;;;;1036115;28;20049;-49
2021/03/24 00:45:09;;;;;;;30.33;19.17;;;;;;;;;;1036608;28;20038;-48
2021/03/24 00:45:40;;;;;;;29.67;20.17;;;;;;;;;;1044567;28;20024;-47
2021/03/24 00:46:11;;;;;;;27.15;18.13;;;;;;;;;;1046680;28;20413;-51
2021/03/24 00:46:41;;;;;;;33.50;20.03;;;;;;;;;;1048083;28;20036;-49
2021/03/24 00:47:11;;;;;;;28.77;19.27;;;;;;;;;;1048698;28;20365;-48
2021/03/24 00:47:42;;;;;;;28.03;18.87;;;;;;;;;;1048573;28;20009;-47
2021/03/24 00:48:16;;;;;;;32.13;19.33;;;;;;;;;;1052588;28;20024;-49
2021/03/24 00:48:47;;;;;;;30.17;19.90;;;;;;;;;;1052148;28;20417;-49
2021/03/24 00:49:17;;;;;;;29.43;19.00;;;;;;;;;;1052635;28;20012;-49
2021/03/24 00:49:47;;;;;;;29.00;19.50;;;;;;;;;;1053273;28;20066;-49
2021/03/24 00:50:18;;;;;;;32.67;20.00;;;;;;;;;;1053346;28;20008;-49
2021/03/24 00:50:49;;;;;;;33.45;20.15;;;;;;;;;;1053148;28;20433;-49
2021/03/24 00:51:19;;;;;;;29.27;20.00;;;;;;;;;;1053023;28;20004;-51
2021/03/24 00:51:49;;;;;;;29.93;19.40;;;;;;;;;;1053178;28;20008;-48
2021/03/24 00:52:19;;;;;;;30.70;18.80;;;;;;;;;;1049361;28;20012;-51
2021/03/24 00:52:50;;;;;;;30.53;20.13;;;;;;;;;;1048801;28;20009;-49
2021/03/24 00:53:20;;;;;;;27.93;19.37;;;;;;;;;;1048778;28;20031;-48
2021/03/24 00:53:50;;;;;;;29.87;18.80;;;;;;;;;;1049201;28;20021;-48
2021/03/24 00:54:21;;;;;;;26.57;18.50;;;;;;;;;;1048578;28;20004;-53
2021/03/24 00:54:51;;;;;;;29.37;18.43;;;;;;;;;;1043567;28;20020;-49
2021/03/24 00:55:22;;;;;;;32.57;18.83;;;;;;;;;;1044093;28;20080;-50
2021/03/24 00:55:52;;;;;;;31.60;19.13;;;;;;;;;;1044315;28;20501;-49
2021/03/24 00:56:22;;;;;;;32.27;19.47;;;;;;;;;;1042519;28;20012;-48
2021/03/24 00:56:53;;;;;;;32.37;20.13;;;;;;;;;;1051328;28;20012;-52
2021/03/24 00:57:23;;;;;;;33.70;20.47;;;;;;;;;;1043139;28;20099;-49
2021/03/24 00:57:53;;;;;;;29.47;20.07;;;;;;;;;;1048653;28;20061;-49
2021/03/24 00:58:24;;;;;;;29.50;18.73;;;;;;;;;;1048999;28;20013;-51
2021/03/24 00:58:54;;;;;;;30.97;19.47;;;;;;;;;;1044204;28;20005;-48
2021/03/24 00:59:24;;;;;;;30.00;20.33;;;;;;;;;;1047509;28;20350;-49
2021/03/24 00:59:55;;;;;;;31.70;18.70;;;;;;;;;;1048174;28;20009;-51
2021/03/24 01:00:27;;;;;;;31.70;20.30;;;;;;;;;;1047512;28;20092;-50
2021/03/24 01:00:57;;;;;;;29.30;19.05;;;;;;;;;;1052859;28;20055;-49
2021/03/24 01:01:27;;;;;;;32.27;19.67;;;;;;;;;;1052604;28;20062;-50
2021/03/24 01:01:57;;;;;;;33.47;20.10;;;;;;;;;;1052398;28;20012;-49
2021/03/24 01:02:28;;;;;;;31.17;20.70;;;;;;;;;;1051886;28;20037;-51
2021/03/24 01:02:58;;;;;;;33.93;20.03;;;;;;;;;;1047853;28;20008;-50
2021/03/24 01:03:28;;;;;;;32.50;18.60;;;;;;;;;;1051465;28;20409;-49
2021/03/24 01:03:58;;;;;;;29.70;19.47;;;;;;;;;;1052926;28;20054;-51
2021/03/24 01:04:29;;;;;;;35.83;20.43;;;;;;;;;;1052763;28;20008;-49
2021/03/24 01:05:01;;;;;;;33.60;20.03;;;;;;;;;;1052728;28;20020;-49
2021/03/24 01:05:31;;;;;;;31.02;19.67;;;;;;;;;;1052768;28;20019;-51
2021/03/24 01:06:02;;;;;;;32.50;19.47;;;;;;;;;;1051570;28;20044;-48
2021/03/24 01:06:32;;;;;;;30.93;19.67;;;;;;;;;;1048885;28;20021;-48
2021/03/24 01:07:03;;;;;;;32.93;19.47;;;;;;;;;;1048636;28;20047;-49
2021/03/24 01:07:34;;;;;;;28.52;19.73;;;;;;;;;;1047982;28;20017;-48
2021/03/24 01:08:07;;;;;;;29.77;18.67;;;;;;;;;;1049271;28;20056;-48
2021/03/24 01:08:38;;;;;;;26.63;18.33;;;;;;;;;;1052467;28;20012;-48
2021/03/24 01:09:09;;;;;;;28.70;18.33;;;;;;;;;;1052374;28;20466;-49
2021/03/24 01:09:40;;;;;;;28.73;18.90;;;;;;;;;;1052516;28;20400;-49
2021/03/24 01:10:30;;;;;;;28.10;18.73;;;;;;;;;;1048159;28;20036;-48
2021/03/24 01:11:01;;;;;;;28.25;18.58;;;;;;;;;;1047844;28;20115;-48
2021/03/24 01:11:32;;;;;;;30.52;18.58;;;;;;;;;;1051352;28;20019;-48
2021/03/24 01:12:02;;;;;;;28.03;18.60;;;;;;;;;;1051537;28;20004;-48
2021/03/24 01:12:40;;;;;;;28.97;19.00;;;;;;;;;;1048770;28;20050;-49
2021/03/24 01:13:13;;;;;;;27.92;17.63;;;;;;;;;;1046915;28;20055;-51
2021/03/24 01:13:43;;;;;;;26.00;17.67;;;;;;;;;;1043848;28;20131;-49
2021/03/24 01:14:13;;;;;;;29.67;18.70;;;;;;;;;;1044748;28;20021;-48
2021/03/24 01:14:43;;;;;;;25.07;17.10;;;;;;;;;;1044768;28;20519;-47
2021/03/24 01:15:14;;;;;;;27.10;17.00;;;;;;;;;;1048600;28;20020;-48
2021/03/24 01:15:44;;;;;;;30.40;17.97;;;;;;;;;;1048521;28;20420;-48
2021/03/24 01:16:14;;;;;;;25.50;16.57;;;;;;;;;;1051779;28;20016;-52
2021/03/24 01:16:45;;;;;;;25.30;16.53;;;;;;;;;;1053203;28;20323;-49
2021/03/24 01:17:15;;;;;;;29.53;17.53;;;;;;;;;;1052610;28;20016;-48
2021/03/24 01:17:45;;;;;;;28.37;18.00;;;;;;;;;;1052535;28;20058;-51
2021/03/24 01:18:16;;;;;;;28.00;18.43;;;;;;;;;;1049361;28;20008;-48
2021/03/24 01:18:46;;;;;;;28.37;17.73;;;;;;;;;;1048096;28;20046;-48
2021/03/24 01:19:16;;;;;;;23.07;16.70;;;;;;;;;;1048143;28;20017;-51
2021/03/24 01:19:46;;;;;;;30.47;18.67;;;;;;;;;;1048460;28;20044;-50
2021/03/24 01:20:17;;;;;;;27.90;17.30;;;;;;;;;;1051772;28;20087;-52
2021/03/24 01:20:47;;;;;;;30.37;17.93;;;;;;;;;;1044398;28;20088;-50
2021/03/24 01:21:17;;;;;;;25.40;17.23;;;;;;;;;;1048522;28;20047;-52
2021/03/24 01:21:48;;;;;;;26.80;17.83;;;;;;;;;;1044502;28;20100;-48
2021/03/24 01:22:18;;;;;;;26.50;16.63;;;;;;;;;;1040832;28;20430;-51
2021/03/24 01:22:48;;;;;;;26.67;18.03;;;;;;;;;;1043972;28;20020;-49
2021/03/24 01:23:19;;;;;;;27.07;18.03;;;;;;;;;;1044197;28;20023;-48
2021/03/24 01:23:49;;;;;;;28.63;17.90;;;;;;;;;;1051822;28;20044;-49
2021/03/24 01:24:19;;;;;;;29.27;18.63;;;;;;;;;;1052522;28;20790;-49
2021/03/24 01:24:49;;;;;;;33.43;19.17;;;;;;;;;;1052971;28;20095;-49
2021/03/24 01:25:20;;;;;;;29.37;19.13;;;;;;;;;;1052931;28;20095;-48
2021/03/24 01:25:50;;;;;;;29.57;18.47;;;;;;;;;;1052498;28;20083;-48
2021/03/24 01:26:20;;;;;;;26.00;17.83;;;;;;;;;;1048685;28;20021;-49
2021/03/24 01:26:51;;;;;;;25.77;17.00;;;;;;;;;;1048302;28;20013;-49
2021/03/24 01:27:21;;;;;;;27.67;17.13;;;;;;;;;;1048300;28;20480;-49
2021/03/24 01:27:51;;;;;;;28.63;17.37;;;;;;;;;;1048748;28;20416;-50
2021/03/24 01:28:23;;;;;;;29.87;17.47;;;;;;;;;;1052566;28;20008;-48
2021/03/24 01:28:59;;;;;;;27.60;17.63;;;;;;;;;;1052657;28;20012;-47
2021/03/24 01:29:30;;;;;;;27.38;18.77;;;;;;;;;;1052202;28;20376;-48
2021/03/24 01:30:00;;;;;;;30.87;18.73;;;;;;;;;;1051357;28;20103;-48
2021/03/24 01:30:30;;;;;;;31.00;18.07;;;;;;;;;;1048795;28;20012;-50
2021/03/24 01:31:01;;;;;;;27.67;18.17;;;;;;;;;;1048709;28;20012;-48
2021/03/24 01:31:31;;;;;;;26.87;17.93;;;;;;;;;;1048785;28;20016;-48
2021/03/24 01:32:01;;;;;;;25.27;16.90;;;;;;;;;;1048786;28;20044;-48
2021/03/24 01:32:32;;;;;;;27.20;17.67;;;;;;;;;;1048605;28;20035;-51
2021/03/24 01:33:02;;;;;;;24.13;17.00;;;;;;;;;;1048537;28;20095;-49
2021/03/24 01:33:32;;;;;;;29.83;18.27;;;;;;;;;;1048392;28;20017;-47
2021/03/24 01:34:03;;;;;;;28.83;18.47;;;;;;;;;;1048590;28;20017;-48
2021/03/24 01:34:33;;;;;;;28.63;18.37;;;;;;;;;;1048795;28;20016;-49
2021/03/24 01:35:06;;;;;;;26.97;17.50;;;;;;;;;;1048434;28;20408;-49
2021/03/24 01:35:37;;;;;;;33.33;18.08;;;;;;;;;;1048086;28;20016;-52
2021/03/24 01:36:07;;;;;;;27.97;17.50;;;;;;;;;;1048438;28;20099;-52
2021/03/24 01:36:37;;;;;;;28.50;17.87;;;;;;;;;;1048107;28;20009;-49
2021/03/24 01:37:08;;;;;;;31.50;17.70;;;;;;;;;;1048397;28;20000;-49
2021/03/24 01:37:39;;;;;;;25.53;17.63;;;;;;;;;;1048247;28;20111;-49
2021/03/24 01:38:10;;;;;;;27.52;17.65;;;;;;;;;;1048313;28;20070;-49
2021/03/24 01:38:40;;;;;;;29.93;19.03;;;;;;;;;;1048411;28;20381;-49
2021/03/24 01:39:10;;;;;;;29.97;18.50;;;;;;;;;;1048611;28;20361;-47
2021/03/24 01:39:41;;;;;;;29.90;17.80;;;;;;;;;;1048596;28;20020;-55
2021/03/24 01:40:31;;;;;;;27.80;17.83;;;;;;;;;;1046506;28;20021;-51
2021/03/24 01:41:01;;;;;;;30.02;18.27;;;;;;;;;;1048001;28;20032;-48
2021/03/24 01:41:31;;;;;;;26.87;17.27;;;;;;;;;;1052299;28;20031;-47
2021/03/24 01:42:01;;;;;;;28.87;18.33;;;;;;;;;;1052305;28;20031;-47
2021/03/24 01:42:32;;;;;;;26.50;17.33;;;;;;;;;;1048353;28;20025;-52
2021/03/24 01:43:04;;;;;;;33.57;18.57;;;;;;;;;;1048401;28;20044;-50
2021/03/24 01:43:35;;;;;;;33.75;19.27;;;;;;;;;;1051228;28;20414;-53
2021/03/24 01:44:05;;;;;;;27.17;18.13;;;;;;;;;;1052402;28;20021;-51
2021/03/24 01:44:54;;;;;;;28.10;18.13;;;;;;;;;;1052234;28;20020;-51
2021/03/24 01:45:24;;;;;;;31.83;18.73;;;;;;;;;;1052105;28;20041;-48
2021/03/24 01:46:13;;;;;;;30.83;18.07;;;;;;;;;;1052460;28;20495;-49
2021/03/24 01:46:45;;;;;;;28.80;18.83;;;;;;;;;;1052515;28;20077;-48
2021/03/24 01:47:15;;;;;;;28.73;17.58;;;;;;;;;;1052618;28;20376;-48
2021/03/24 01:47:45;;;;;;;28.67;18.03;;;;;;;;;;1048174;28;20016;-48
2021/03/24 01:48:16;;;;;;;27.87;18.87;;;;;;;;;;1048000;28;20024;-53
2021/03/24 01:48:46;;;;;;;29.70;18.33;;;;;;;;;;1043902;28;20100;-49
2021/03/24 01:49:21;;;;;;;29.23;18.27;;;;;;;;;;1043998;28;20036;-48
2021/03/24 01:49:51;;;;;;;29.27;18.73;;;;;;;;;;1048251;28;20508;-48
2021/03/24 01:50:32;;;;;;;27.00;17.97;;;;;;;;;;1044866;28;20047;-48
2021/03/24 01:51:02;;;;;;;26.86;18.48;;;;;;;;;;1049580;28;20025;-49
2021/03/24 01:51:34;;;;;;;28.97;17.60;;;;;;;;;;1048353;28;20044;-48
2021/03/24 01:52:05;;;;;;;26.90;18.20;;;;;;;;;;1045823;28;20462;-48
2021/03/24 01:52:35;;;;;;;26.20;17.53;;;;;;;;;;1044292;28;20013;-47
2021/03/24 01:53:05;;;;;;;27.30;17.43;;;;;;;;;;1044991;28;20017;-47
2021/03/24 01:53:37;;;;;;;27.93;18.87;;;;;;;;;;1039640;28;20022;-49
2021/03/24 01:54:08;;;;;;;28.08;18.35;;;;;;;;;;1044549;28;20009;-48
2021/03/24 01:54:40;;;;;;;26.38;17.40;;;;;;;;;;1044575;28;20032;-49
2021/03/24 01:55:10;;;;;;;27.95;17.63;;;;;;;;;;1045253;28;20008;-49
2021/03/24 01:55:41;;;;;;;30.30;18.77;;;;;;;;;;1052734;28;20019;-48
2021/03/24 01:56:11;;;;;;;26.03;17.97;;;;;;;;;;1052264;28;20009;-49
2021/03/24 01:56:42;;;;;;;27.67;19.20;;;;;;;;;;1052733;28;20015;-47
2021/03/24 01:57:13;;;;;;;28.83;18.77;;;;;;;;;;1052871;28;20000;-47
2021/03/24 01:57:47;;;;;;;28.83;18.70;;;;;;;;;;1048447;28;20460;-48
2021/03/24 01:58:17;;;;;;;28.38;18.35;;;;;;;;;;1048661;28;20032;-47
2021/03/24 01:58:47;;;;;;;29.20;18.37;;;;;;;;;;1048493;28;20488;-47
2021/03/24 01:59:17;;;;;;;27.70;18.93;;;;;;;;;;1048935;28;20004;-47
2021/03/24 01:59:48;;;;;;;30.27;18.87;;;;;;;;;;1052871;28;20040;-46
2021/03/24 02:00:20;;;;;;;30.57;18.77;;;;;;;;;;1052693;28;20004;-47
2021/03/24 02:00:51;;;;;;;27.05;18.90;;;;;;;;;;1053560;28;20023;-50
2021/03/24 02:01:21;;;;;;;32.20;19.13;;;;;;;;;;1053000;28;20353;-49
2021/03/24 02:01:52;;;;;;;28.60;19.03;;;;;;;;;;1054276;28;20000;-47
2021/03/24 02:02:24;;;;;;;27.17;18.33;;;;;;;;;;1053954;28;20086;-50
2021/03/24 02:02:54;;;;;;;25.35;17.63;;;;;;;;;;1053741;28;20011;-50
2021/03/24 02:03:25;;;;;;;26.13;17.40;;;;;;;;;;1053063;28;20015;-49
2021/03/24 02:03:55;;;;;;;27.03;17.90;;;;;;;;;;1053824;28;20461;-49
2021/03/24 02:04:25;;;;;;;30.93;18.43;;;;;;;;;;1053165;28;20004;-50
2021/03/24 02:04:56;;;;;;;30.27;19.77;;;;;;;;;;1049142;28;20100;-48
2021/03/24 02:05:26;;;;;;;29.83;18.50;;;;;;;;;;1044835;28;20028;-49
2021/03/24 02:05:57;;;;;;;28.70;18.23;;;;;;;;;;1045204;28;20092;-50
2021/03/24 02:06:29;;;;;;;26.97;18.47;;;;;;;;;;1049638;28;20087;-51
2021/03/24 02:07:05;;;;;;;27.75;18.30;;;;;;;;;;1049569;28;20013;-51
2021/03/24 02:07:46;;;;;;;26.70;18.27;;;;;;;;;;1049380;28;20013;-49
2021/03/24 02:08:23;;;;;;;28.08;17.10;;;;;;;;;;1047834;28;20009;-48
2021/03/24 02:08:57;;;;;;;27.50;18.35;;;;;;;;;;1049540;28;20020;-48
2021/03/24 02:09:42;;;;;;;26.88;18.17;;;;;;;;;;1048025;28;20464;-47
2021/03/24 02:10:14;;;;;;;29.05;16.60;;;;;;;;;;1044077;28;20040;-47
2021/03/24 02:10:48;;;;;;;27.38;17.27;;;;;;;;;;1041196;28;20451;-47
2021/03/24 02:11:38;;;;;;;25.60;17.58;;;;;;;;;;1043709;28;20466;-48
2021/03/24 02:12:09;;;;;;;24.30;15.85;;;;;;;;;;1047904;28;20013;-47
2021/03/24 02:12:46;;;;;;;26.00;17.33;;;;;;;;;;1049648;28;20025;-49
2021/03/24 02:13:22;;;;;;;26.70;17.70;;;;;;;;;;1044952;28;20048;-55
2021/03/24 02:13:57;;;;;;;28.65;18.27;;;;;;;;;;1046980;28;20017;-47
2021/03/24 02:14:29;;;;;;;26.42;17.00;;;;;;;;;;1045178;28;20377;-48
2021/03/24 02:15:01;;;;;;;29.25;18.48;;;;;;;;;;1042674;28;20060;-47
2021/03/24 02:15:33;;;;;;;27.83;18.10;;;;;;;;;;1044847;28;20382;-47
2021/03/24 02:16:06;;;;;;;29.00;17.88;;;;;;;;;;1041528;28;20112;-47
2021/03/24 02:16:39;;;;;;;29.17;18.77;;;;;;;;;;1046061;28;20017;-47
2021/03/24 02:17:09;;;;;;;28.98;18.30;;;;;;;;;;1045152;28;20032;-49
2021/03/24 02:17:40;;;;;;;27.40;17.70;;;;;;;;;;1041584;28;20116;-50
2021/03/24 02:18:11;;;;;;;28.52;18.60;;;;;;;;;;1041375;28;20378;-48
2021/03/24 02:18:41;;;;;;;29.83;17.53;;;;;;;;;;1041051;28;20504;-48
2021/03/24 02:19:13;;;;;;;31.10;18.07;;;;;;;;;;1045002;28;20323;-51
2021/03/24 02:20:02;;;;;;;27.42;17.92;;;;;;;;;;1044924;28;20096;-50
2021/03/24 02:20:36;;;;;;;26.08;17.45;;;;;;;;;;1047510;28;20016;-53
2021/03/24 02:21:08;;;;;;;33.47;17.50;;;;;;;;;;1048914;28;20025;-50
2021/03/24 02:21:38;;;;;;;29.50;18.27;;;;;;;;;;1048747;28;20051;-50
2021/03/24 02:22:08;;;;;;;30.43;18.73;;;;;;;;;;1049157;28;20034;-49
2021/03/24 02:22:40;;;;;;;36.17;19.53;;;;;;;;;;1049429;28;20047;-49
2021/03/24 02:23:31;;;;;;;29.95;18.70;;;;;;;;;;1045254;28;20009;-49
2021/03/24 02:24:10;;;;;;;29.05;19.55;;;;;;;;;;1041076;28;20091;-49
2021/03/24 02:24:40;;;;;;;28.83;18.60;;;;;;;;;;1045368;28;20029;-49
2021/03/24 02:25:18;;;;;;;31.37;18.80;;;;;;;;;;1049028;28;20017;-51
2021/03/24 02:25:52;;;;;;;29.77;19.17;;;;;;;;;;1047326;28;20094;-52
2021/03/24 02:26:28;;;;;;;30.77;18.75;;;;;;;;;;1045011;28;20412;-49
2021/03/24 02:27:01;;;;;;;30.65;19.92;;;;;;;;;;1041102;28;20024;-49
2021/03/24 02:27:32;;;;;;;29.45;18.38;;;;;;;;;;1042500;28;20017;-51
2021/03/24 02:28:04;;;;;;;30.38;18.48;;;;;;;;;;1042003;28;20022;-49
2021/03/24 02:28:35;;;;;;;30.90;18.42;;;;;;;;;;1042022;28;20496;-50
2021/03/24 02:29:05;;;;;;;32.70;20.50;;;;;;;;;;1040756;28;20035;-50
2021/03/24 02:29:37;;;;;;;29.93;19.97;;;;;;;;;;1040909;28;20021;-50
2021/03/24 02:30:09;;;;;;;29.65;19.40;;;;;;;;;;1041562;28;20025;-48
2021/03/24 02:30:40;;;;;;;32.95;18.85;;;;;;;;;;1040515;28;20485;-51
2021/03/24 02:31:11;;;;;;;32.20;19.60;;;;;;;;;;1041968;28;20018;-49
2021/03/24 02:31:41;;;;;;;30.47;20.00;;;;;;;;;;1041526;28;20021;-50
2021/03/24 02:32:12;;;;;;;31.80;19.27;;;;;;;;;;1045154;28;20106;-50
2021/03/24 02:32:45;;;;;;;28.00;20.17;;;;;;;;;;1045273;28;20013;-50
2021/03/24 02:33:19;;;;;;;30.20;20.15;;;;;;;;;;1041654;28;20025;-47
2021/03/24 02:33:50;;;;;;;30.85;19.35;;;;;;;;;;1036952;28;20018;-49
2021/03/24 02:34:22;;;;;;;29.70;18.70;;;;;;;;;;1033664;28;20003;-52
2021/03/24 02:34:52;;;;;;;28.98;18.50;;;;;;;;;;1037925;28;20032;-49
2021/03/24 02:35:24;;;;;;;26.90;17.83;;;;;;;;;;1036978;28;20010;-49
2021/03/24 02:35:57;;;;;;;29.80;18.60;;;;;;;;;;1037502;28;20002;-48
2021/03/24 02:36:27;;;;;;;26.55;19.02;;;;;;;;;;1037802;28;20052;-49
2021/03/24 02:36:57;;;;;;;31.70;19.07;;;;;;;;;;1041483;28;20064;-51
2021/03/24 02:37:29;;;;;;;30.03;19.87;;;;;;;;;;1045272;28;20009;-48
2021/03/24 02:38:01;;;;;;;30.70;19.50;;;;;;;;;;1045452;28;20461;-50
2021/03/24 02:38:32;;;;;;;27.52;18.65;;;;;;;;;;1037042;28;20370;-53
2021/03/24 02:39:04;;;;;;;29.33;19.57;;;;;;;;;;1036905;28;20037;-50
2021/03/24 02:39:34;;;;;;;25.67;18.40;;;;;;;;;;1037472;28;20013;-50
2021/03/24 02:40:06;;;;;;;30.30;18.87;;;;;;;;;;1041861;28;20017;-49
2021/03/24 02:40:36;;;;;;;29.08;18.60;;;;;;;;;;1044825;28;20017;-48
2021/03/24 02:41:06;;;;;;;29.23;18.43;;;;;;;;;;1045167;28;20410;-51
2021/03/24 02:41:37;;;;;;;30.27;19.13;;;;;;;;;;1041151;28;20006;-51
2021/03/24 02:42:07;;;;;;;28.97;19.43;;;;;;;;;;1037561;28;20452;-50
2021/03/24 02:42:38;;;;;;;30.20;19.30;;;;;;;;;;1040840;28;20028;-50
2021/03/24 02:43:08;;;;;;;27.60;18.93;;;;;;;;;;1040852;28;20010;-48
2021/03/24 02:43:38;;;;;;;30.70;19.03;;;;;;;;;;1045192;28;20001;-52
2021/03/24 02:44:09;;;;;;;31.27;19.00;;;;;;;;;;1044980;28;20094;-51
2021/03/24 02:44:39;;;;;;;26.37;17.93;;;;;;;;;;1045593;28;20008;-50
2021/03/24 02:45:10;;;;;;;27.87;18.63;;;;;;;;;;1044944;28;20319;-48
2021/03/24 02:45:41;;;;;;;30.57;19.43;;;;;;;;;;1045423;28;20032;-49
2021/03/24 02:46:11;;;;;;;29.95;19.08;;;;;;;;;;1049332;28;20015;-49
2021/03/24 02:46:42;;;;;;;29.33;19.00;;;;;;;;;;1044989;28;20013;-50
2021/03/24 02:47:12;;;;;;;28.07;18.03;;;;;;;;;;1049589;28;20076;-49
2021/03/24 02:47:42;;;;;;;30.53;19.57;;;;;;;;;;1044932;28;20094;-50
2021/03/24 02:48:14;;;;;;;26.33;17.97;;;;;;;;;;1044945;28;20048;-51
2021/03/24 02:48:44;;;;;;;35.80;19.02;;;;;;;;;;1044756;28;20021;-51
2021/03/24 02:49:14;;;;;;;28.50;19.13;;;;;;;;;;1045026;28;20017;-52
2021/03/24 02:49:45;;;;;;;30.00;19.47;;;;;;;;;;1044736;28;20024;-51
2021/03/24 02:50:15;;;;;;;31.67;20.23;;;;;;;;;;1041207;28;20018;-48
2021/03/24 02:50:45;;;;;;;28.70;19.17;;;;;;;;;;1044980;28;20343;-48
2021/03/24 02:51:17;;;;;;;28.43;19.17;;;;;;;;;;1045055;28;20180;-51
2021/03/24 02:51:47;;;;;;;29.25;19.55;;;;;;;;;;1044773;28;20477;-51
2021/03/24 02:52:18;;;;;;;33.07;20.50;;;;;;;;;;1044955;28;20009;-52
2021/03/24 02:52:48;;;;;;;31.00;19.37;;;;;;;;;;1049349;28;20035;-49
2021/03/24 02:53:18;;;;;;;30.23;19.43;;;;;;;;;;1048929;28;20347;-48
2021/03/24 02:53:48;;;;;;;32.53;19.87;;;;;;;;;;1049111;28;20024;-48
2021/03/24 02:54:19;;;;;;;31.37;19.83;;;;;;;;;;1048933;28;20346;-49
2021/03/24 02:54:50;;;;;;;31.63;19.17;;;;;;;;;;1049316;28;20013;-48
2021/03/24 02:55:20;;;;;;;29.20;18.37;;;;;;;;;;1044927;28;20544;-47
2021/03/24 02:55:50;;;;;;;29.33;19.03;;;;;;;;;;1045425;28;20020;-49
2021/03/24 02:56:21;;;;;;;29.50;19.00;;;;;;;;;;1048888;28;20000;-49
2021/03/24 02:56:51;;;;;;;29.27;19.27;;;;;;;;;;1049184;28;20019;-49
2021/03/24 02:57:21;;;;;;;31.80;19.60;;;;;;;;;;1048804;28;20486;-49
2021/03/24 02:57:51;;;;;;;32.10;20.73;;;;;;;;;;1048983;28;20016;-51
2021/03/24 02:58:22;;;;;;;32.60;20.53;;;;;;;;;;1049604;28;20005;-49
2021/03/24 02:58:52;;;;;;;32.43;19.67;;;;;;;;;;1049480;28;20012;-49
2021/03/24 02:59:22;;;;;;;28.70;20.30;;;;;;;;;;1049322;28;20051;-51
2021/03/24 02:59:53;;;;;;;29.87;19.43;;;;;;;;;;1049054;28;20040;-49
2021/03/24 03:00:23;;;;;;;36.67;19.83;;;;;;;;;;1049275;28;20001;-49
2021/03/24 03:00:54;;;;;;;35.33;19.47;;;;;;;;;;1044728;28;20033;-48
2021/03/24 03:01:26;;;;;;;28.40;19.23;;;;;;;;;;1044950;28;20012;-48
2021/03/24 03:02:05;;;;;;;32.20;19.63;;;;;;;;;;1044797;28;20387;-49
2021/03/24 03:02:36;;;;;;;28.85;19.73;;;;;;;;;;1046557;28;20032;-48